Madison, SD

1:51 AM CST on February 25, 2017 (GMT -0600)
Madison Municipal

Weather History for KMDS - November, 2011

Change the Weather History Date:

Saturday, November 19, 2011

  Actual Average Record
Temperature  
Mean Temperature 22 °F -  
Max Temperature 28 °F 39 °F 55 °F (2013)
Min Temperature 15 °F 21 °F 10 °F (2014)
Degree Days  
Heating Degree Days 44    
Moisture  
Dew Point 18 °F    
Average Humidity 88    
Maximum Humidity 100    
Minimum Humidity 74    
Precipitation  
Precipitation 0.83 in - - ()
Sea Level Pressure  
Sea Level Pressure 29.80 in    
Wind  
Wind Speed 19 mph (NNE)    
Max Wind Speed 28 mph    
Max Gust Speed 39 mph    
Visibility 9 miles    
Events Rain , Snow    
Averages and records for this station are not official NWS values.
T = Trace of Precipitation, MM = Missing Value Source: NWS Daily Summary

Daily Weather History Graph

Daily Weather History Graph

Search for Another Location

Airport or City:

Trip Planner

Search our weather history database for the weather conditions in past years. The results will help you decide how hot, cold, wet, or windy it might be!

Date:

Astronomy

Nov. 19, 2011 Rise Set
Actual Time 7:28 AM CST 4:58 PM CST
Civil Twilight 6:56 AM CST 5:30 PM CST
Nautical Twilight 6:21 AM CST 6:05 PM CST
Astronomical Twilight 5:47 AM CST 6:39 PM CST
Moon 12:37 AM CST (11/19) 1:28 PM CST (11/19)
Length of Visible Light 10h 33m
Length of Day
9h 30m
Last Quarter, 38% of the Moon is Illuminated
Nov 19
Last Quarter
Nov 25
New
Dec 2
First Quarter
Dec 10
Full
Dec 17
Last Quarter

Hourly Weather History & Observations

Time (CST) Temp. Windchill Dew Point Humidity Pressure Visibility Wind Dir Wind Speed Gust Speed Precip Events Conditions
12:10 AM 28.4 °F 16.6 °F 23.0 °F 80% 29.77 in 10.0 mi North 16.1 mph 23.0 mph N/A   Clear
12:30 AM 26.6 °F 14.7 °F 23.0 °F 86% 29.75 in 10.0 mi NNE 15.0 mph 20.7 mph N/A   Clear
12:50 AM 26.6 °F 14.3 °F 23.0 °F 86% 29.74 in 10.0 mi NE 16.1 mph 20.7 mph N/A   Clear
1:10 AM 26.6 °F 13.4 °F 21.2 °F 80% 29.73 in 10.0 mi NE 18.4 mph 23.0 mph N/A   Clear
1:30 AM 26.6 °F 14.3 °F 21.2 °F 80% 29.72 in 10.0 mi NE 16.1 mph 21.9 mph N/A   Clear
1:50 AM 26.6 °F 13.1 °F 19.4 °F 74% 29.71 in 10.0 mi NNE 19.6 mph 25.3 mph N/A   Clear
2:10 AM 26.6 °F 12.4 °F 19.4 °F 74% 29.73 in 10.0 mi NNE 21.9 mph 27.6 mph N/A   Scattered Clouds
2:30 AM 24.8 °F 10.3 °F 17.6 °F 74% 29.73 in 10.0 mi NNE 20.7 mph 28.8 mph N/A   Partly Cloudy
2:50 AM 24.8 °F 9.3 °F 17.6 °F 74% 29.71 in 10.0 mi NNE 24.2 mph 33.4 mph N/A   Clear
3:10 AM 24.8 °F 8.4 °F 17.6 °F 74% 29.71 in 10.0 mi NNE 27.6 mph 32.2 mph N/A   Clear
3:30 AM 24.8 °F 8.7 °F 17.6 °F 74% 29.72 in 10.0 mi NNE 26.5 mph 38.0 mph N/A   Partly Cloudy
3:50 AM 24.8 °F 9.3 °F 17.6 °F 74% 29.69 in 10.0 mi NNE 24.2 mph 39.1 mph N/A   Partly Cloudy
4:10 AM 23.0 °F 7.6 °F 17.6 °F 80% 29.68 in 10.0 mi NE 21.9 mph 33.4 mph N/A   Clear
4:30 AM 23.0 °F 8.3 °F 17.6 °F 80% 29.68 in 10.0 mi NE 19.6 mph 33.4 mph N/A   Clear
5:10 AM 23.0 °F 11.1 °F 17.6 °F 80% 29.74 in 10.0 mi NNE 12.7 mph - N/A   Partly Cloudy
5:30 AM 23.0 °F 11.1 °F 17.6 °F 80% 29.75 in 10.0 mi NNE 12.7 mph - N/A   Mostly Cloudy
5:50 AM 23.0 °F 9.6 °F 17.6 °F 80% 29.74 in 10.0 mi NE 16.1 mph 21.9 mph N/A   Overcast
6:10 AM 23.0 °F 8.7 °F 17.6 °F 80% 29.74 in 10.0 mi NE 18.4 mph 26.5 mph N/A   Overcast
6:30 AM 23.0 °F 9.2 °F 17.6 °F 80% 29.76 in 10.0 mi NE 17.3 mph 27.6 mph N/A   Overcast
6:50 AM 23.0 °F 7.6 °F 15.8 °F 74% 29.74 in 10.0 mi NE 21.9 mph 31.1 mph N/A   Overcast
7:10 AM 23.0 °F 7.6 °F 15.8 °F 74% 29.74 in 10.0 mi NE 21.9 mph 26.5 mph N/A   Overcast
7:30 AM 23.0 °F 7.6 °F 15.8 °F 74% 29.74 in 10.0 mi NE 21.9 mph 29.9 mph N/A   Overcast
7:50 AM 23.0 °F 8.7 °F 15.8 °F 74% 29.73 in 10.0 mi NE 18.4 mph 31.1 mph N/A   Overcast
8:10 AM 23.0 °F 6.6 °F 15.8 °F 74% 29.75 in 10.0 mi NE 25.3 mph 31.1 mph N/A   Overcast
8:30 AM 23.0 °F 6.6 °F 15.8 °F 74% 29.76 in 10.0 mi NNE 25.3 mph 31.1 mph N/A Rain Light Freezing Rain
8:50 AM 23.0 °F 7.2 °F 15.8 °F 74% 29.77 in 10.0 mi NNE 23.0 mph 29.9 mph N/A Rain Light Freezing Rain
9:10 AM 21.2 °F 5.6 °F 15.8 °F 80% 29.77 in 10.0 mi NNE 20.7 mph 32.2 mph N/A Rain Light Freezing Rain
9:30 AM 21.2 °F 5.6 °F 17.6 °F 86% 29.79 in 10.0 mi NNE 20.7 mph 28.8 mph N/A Rain Light Freezing Rain
9:50 AM 21.2 °F 6.0 °F 19.4 °F 93% 29.80 in 10.0 mi NNE 19.6 mph 27.6 mph 0.02 in Snow Light Snow
10:00 AM 19.4 °F 3.2 °F 19.4 °F 100% 29.80 in 5.0 mi NNE 20.7 mph 27.6 mph 0.05 in Snow Light Snow
10:10 AM 19.4 °F 3.2 °F 19.4 °F 100% 29.80 in 5.0 mi NNE 20.7 mph 25.3 mph 0.03 in Snow Light Snow
11:00 AM 19.4 °F 3.6 °F 19.4 °F 100% 29.82 in 0.5 mi NNE 19.6 mph 26.5 mph 0.33 in Snow Snow
11:10 AM 19.4 °F 3.6 °F 19.4 °F 100% 29.82 in 0.8 mi North 19.6 mph 24.2 mph 0.04 in Snow Light Snow
11:30 AM 19.4 °F 4.1 °F 19.4 °F 100% 29.82 in 10.0 mi NNE 18.4 mph 26.5 mph 0.07 in Snow Light Snow
11:50 AM 19.4 °F 3.6 °F 19.4 °F 100% 29.82 in 10.0 mi NNE 19.6 mph 27.6 mph 0.08 in Rain Light Freezing Rain
12:00 PM 17.6 °F 1.3 °F 17.6 °F 100% 29.83 in 10.0 mi North 19.6 mph 27.6 mph 0.09 in Snow Light Snow
12:10 PM 17.6 °F 0.1 °F 17.6 °F 100% 29.82 in 10.0 mi NNE 23.0 mph - N/A Snow Light Snow
12:30 PM 17.6 °F 1.3 °F 17.6 °F 100% 29.82 in 10.0 mi North 19.6 mph 29.9 mph 0.01 in Snow Light Snow
12:50 PM 17.6 °F 1.3 °F 17.6 °F 100% 29.84 in 10.0 mi North 19.6 mph 29.9 mph 0.01 in Rain Light Freezing Rain
1:30 PM 17.6 °F 0.1 °F 17.6 °F 100% 29.85 in 9.0 mi North 23.0 mph 27.6 mph 0.05 in Snow Light Snow
1:50 PM 17.6 °F 0.5 °F 17.6 °F 100% 29.86 in 2.0 mi North 21.9 mph 28.8 mph 0.11 in Snow Light Snow
2:00 PM 19.4 °F 3.2 °F 19.4 °F 100% 29.85 in 2.0 mi North 20.7 mph 27.6 mph 0.15 in Snow Light Snow
2:10 PM 19.4 °F 3.2 °F 19.4 °F 100% 29.86 in 2.5 mi North 20.7 mph 26.5 mph 0.02 in Snow Light Snow
2:30 PM 17.6 °F 2.2 °F 17.6 °F 100% 29.86 in 9.0 mi North 17.3 mph - 0.07 in Snow Light Snow
2:50 PM 19.4 °F 3.2 °F 17.6 °F 93% 29.87 in 10.0 mi NNE 20.7 mph 25.3 mph 0.08 in Rain Light Freezing Rain
3:00 PM 19.4 °F 3.6 °F 17.6 °F 93% 29.88 in 10.0 mi NNE 19.6 mph - 0.08 in Rain Light Freezing Rain
3:10 PM 19.4 °F 5.0 °F 17.6 °F 93% 29.89 in 10.0 mi North 16.1 mph - N/A   Clear
3:30 PM 17.6 °F 2.7 °F 17.6 °F 100% 29.90 in 10.0 mi North 16.1 mph 23.0 mph N/A   Partly Cloudy
3:50 PM 17.6 °F 1.3 °F 17.6 °F 100% 29.92 in 10.0 mi North 19.6 mph - N/A   Clear
4:10 PM 17.6 °F 2.7 °F 15.8 °F 93% 29.94 in 10.0 mi North 16.1 mph - N/A   Clear
4:30 PM 15.8 °F 0.3 °F 15.8 °F 100% 29.95 in 10.0 mi North 16.1 mph - N/A   Mostly Cloudy
4:50 PM 17.6 °F 2.7 °F 17.6 °F 100% 29.98 in 10.0 mi North 16.1 mph 21.9 mph N/A   Overcast
5:10 PM 15.8 °F 1.4 °F 15.8 °F 100% 30.00 in 10.0 mi NNW 13.8 mph - N/A   Overcast
5:30 PM 15.8 °F 1.4 °F 15.8 °F 100% 30.02 in 10.0 mi North 13.8 mph - N/A   Overcast
6:10 PM 15.8 °F 0.9 °F 15.8 °F 100% 30.05 in 10.0 mi North 15.0 mph - N/A Snow Light Snow
6:30 PM 15.8 °F 2.7 °F 15.8 °F 100% 30.06 in 10.0 mi North 11.5 mph - N/A Snow Light Snow
6:50 PM 15.8 °F 1.4 °F 15.8 °F 100% 30.08 in 10.0 mi NNW 13.8 mph 17.3 mph N/A Snow Light Snow
7:10 PM 15.8 °F 2.7 °F 15.8 °F 100% 30.10 in 10.0 mi NNW 11.5 mph 17.3 mph N/A Snow Light Snow
7:30 PM 15.8 °F 1.4 °F 14.0 °F 93% 30.11 in 10.0 mi North 13.8 mph - N/A Snow Light Snow
7:50 PM 15.8 °F 0.9 °F 14.0 °F 93% 30.12 in 10.0 mi North 15.0 mph - 0.01 in Snow Light Snow
8:00 PM 15.8 °F 0.9 °F 14.0 °F 93% 30.12 in 10.0 mi North 15.0 mph 20.7 mph 0.01 in Snow Light Snow
8:10 PM 15.8 °F 3.4 °F 14.0 °F 93% 30.13 in 10.0 mi North 10.4 mph - N/A Snow Light Snow
8:30 PM 15.8 °F 2.1 °F 14.0 °F 93% 30.13 in 10.0 mi North 12.7 mph - N/A Snow Light Snow
8:50 PM 15.8 °F 4.2 °F 15.8 °F 100% 30.15 in 10.0 mi North 9.2 mph - 0.01 in Snow Light Snow
9:00 PM 15.8 °F 3.4 °F 15.8 °F 100% 30.14 in 10.0 mi North 10.4 mph - 0.01 in Snow Light Snow
9:10 PM 15.8 °F 2.7 °F 15.8 °F 100% 30.14 in 10.0 mi North 11.5 mph - N/A Snow Light Snow
9:30 PM 15.8 °F 2.1 °F 15.8 °F 100% 30.14 in 10.0 mi North 12.7 mph - N/A Snow Light Snow
9:50 PM 15.8 °F 1.4 °F 14.0 °F 93% 30.15 in 10.0 mi NNW 13.8 mph - N/A Snow Light Snow
10:10 PM 14.0 °F -0.2 °F 14.0 °F 100% 30.14 in 10.0 mi North 12.7 mph 18.4 mph N/A Snow Light Snow
10:30 PM 14.0 °F 0.5 °F 14.0 °F 100% 30.16 in 10.0 mi North 11.5 mph - N/A   Scattered Clouds
11:10 PM 10.4 °F -0.4 °F 10.4 °F 100% 30.17 in 10.0 mi North 6.9 mph - N/A   Partly Cloudy
11:30 PM 8.6 °F -2.6 °F 8.6 °F 100% 30.18 in 10.0 mi North 6.9 mph - N/A   Scattered Clouds